Terminal Aerodrome Forecast
Issued by NWS Grand Forks, ND

Home | Current Version | Previous Version | Graphics & Text | Print | Product List | Glossary On
Versions: 1 2 3 4 5 6 7 8 9 10 11 12
000
FTUS43 KFGF 151100
TAFGFK
TAF
KGFK 151135Z 1512/1612 VRB04KT P6SM SCT200
     FM151500 15008KT P6SM BKN100
     FM151900 14012G20KT P6SM BKN080
     FM160300 08015G24KT P6SM BKN050=

USA.gov is the U.S. government's official web portal to all federal, state and local government web resources and services.